createdAt,value
2023-02-23T00:01:56.004Z,7.82
2023-02-23T00:04:29.442Z,7.83
2023-02-23T00:07:10.826Z,7.82
2023-02-23T00:09:37.181Z,7.82
2023-02-23T00:12:09.079Z,7.82
2023-02-23T00:14:38.431Z,7.82
2023-02-23T00:17:10.943Z,7.82
2023-02-23T00:19:37.749Z,7.80
2023-02-23T00:22:04.239Z,7.80
2023-02-23T00:24:31.081Z,7.81
2023-02-23T00:27:06.414Z,7.79
2023-02-23T00:29:38.894Z,7.79
2023-02-23T00:32:05.625Z,7.78
2023-02-23T00:34:35.772Z,7.78
2023-02-23T00:37:04.575Z,7.77
2023-02-23T00:39:30.980Z,7.78
2023-02-23T00:42:02.722Z,7.78
2023-02-23T00:44:29.739Z,7.77
2023-02-23T00:46:56.103Z,7.77
2023-02-23T00:49:23.473Z,7.77
2023-02-23T00:51:54.088Z,7.77
2023-02-23T00:54:22.160Z,7.75
2023-02-23T00:56:52.001Z,7.75
2023-02-23T00:59:38.361Z,7.74
2023-02-23T01:02:08.960Z,7.74
2023-02-23T01:04:35.346Z,7.74
2023-02-23T01:07:04.126Z,7.74
2023-02-23T01:09:30.536Z,7.72
2023-02-23T01:12:01.685Z,7.73
2023-02-23T01:14:34.196Z,7.72
2023-02-23T01:17:01.607Z,7.70
2023-02-23T01:19:29.141Z,7.70
2023-02-23T01:22:03.639Z,7.68
2023-02-23T01:24:30.112Z,7.67
2023-02-23T01:26:56.651Z,7.65
2023-02-23T01:29:29.452Z,7.65
2023-02-23T01:31:56.100Z,7.64
2023-02-23T01:34:23.388Z,7.63
2023-02-23T01:36:50.850Z,7.63
2023-02-23T01:39:20.230Z,7.63
2023-02-23T01:41:46.734Z,7.61
2023-02-23T01:44:20.064Z,7.61
2023-02-23T01:47:06.234Z,7.62
2023-02-23T01:49:34.690Z,7.62
2023-02-23T01:52:42.128Z,7.62
2023-02-23T01:55:13.047Z,7.61
2023-02-23T01:57:41.654Z,7.61
2023-02-23T02:00:15.250Z,7.61
2023-02-23T02:02:41.844Z,7.61
2023-02-23T02:05:14.097Z,7.61
2023-02-23T02:07:47.191Z,7.60
2023-02-23T02:10:13.798Z,7.61
2023-02-23T02:12:54.610Z,7.61
2023-02-23T02:15:38.678Z,7.60
2023-02-23T02:18:53.597Z,7.60
2023-02-23T02:21:47.852Z,7.60
2023-02-23T02:24:35.782Z,7.61
2023-02-23T02:27:21.249Z,7.60
2023-02-23T02:30:18.738Z,7.61
2023-02-23T02:33:19.222Z,7.60
2023-02-23T02:36:08.217Z,7.59
2023-02-23T02:38:54.273Z,7.59
2023-02-23T02:41:51.288Z,7.58
2023-02-23T02:44:23.782Z,7.57
2023-02-23T02:47:00.984Z,7.58
2023-02-23T02:49:48.982Z,7.56
2023-02-23T02:52:37.765Z,7.57
2023-02-23T02:55:14.894Z,7.55
2023-02-23T02:57:53.375Z,7.54
2023-02-23T03:00:53.570Z,7.53
2023-02-23T03:03:54.333Z,7.53
2023-02-23T03:06:56.223Z,7.54
2023-02-23T03:10:04.021Z,7.53
2023-02-23T03:13:20.538Z,7.51
2023-02-23T03:16:35.217Z,7.51
2023-02-23T03:19:47.507Z,7.51
2023-02-23T03:22:43.140Z,7.50
2023-02-23T03:25:51.167Z,7.49
2023-02-23T03:28:48.910Z,7.46
2023-02-23T03:31:53.639Z,7.47
2023-02-23T03:34:45.595Z,7.45
2023-02-23T03:37:38.093Z,7.46
2023-02-23T03:40:39.122Z,7.43
2023-02-23T03:43:31.002Z,7.43
2023-02-23T03:46:23.433Z,7.42
2023-02-23T03:49:14.578Z,7.42
2023-02-23T03:52:03.221Z,7.41
2023-02-23T03:55:12.129Z,7.42
2023-02-23T03:58:00.254Z,7.42
2023-02-23T04:00:51.866Z,7.37
2023-02-23T04:03:39.556Z,7.36
2023-02-23T04:06:41.049Z,7.36
2023-02-23T04:09:39.617Z,7.35
2023-02-23T04:12:52.214Z,7.36
2023-02-23T04:15:38.943Z,7.34
2023-02-23T04:18:14.206Z,7.32
2023-02-23T04:20:41.871Z,7.32
2023-02-23T04:23:14.518Z,7.32
2023-02-23T04:25:48.529Z,7.33
2023-02-23T04:28:23.744Z,7.33
2023-02-23T04:30:55.342Z,7.33
2023-02-23T04:33:22.679Z,7.32
2023-02-23T04:35:58.437Z,7.29
2023-02-23T04:38:24.859Z,7.30
2023-02-23T04:41:02.476Z,7.28
2023-02-23T04:43:31.028Z,7.29
2023-02-23T04:45:57.603Z,7.29
2023-02-23T04:48:26.728Z,7.31
2023-02-23T04:50:57.547Z,7.31
2023-02-23T04:53:24.051Z,7.32
2023-02-23T04:55:57.716Z,7.30
2023-02-23T04:58:24.258Z,7.31
2023-02-23T05:00:50.821Z,7.32
2023-02-23T05:03:23.433Z,7.31
2023-02-23T05:05:49.889Z,7.31
2023-02-23T05:08:21.337Z,7.31
2023-02-23T05:10:55.839Z,7.31
2023-02-23T05:13:22.259Z,7.32
2023-02-23T05:15:59.101Z,7.33
2023-02-23T05:18:26.428Z,7.33
2023-02-23T05:21:12.566Z,7.33
2023-02-23T05:23:41.130Z,7.34
2023-02-23T05:26:10.098Z,7.35
2023-02-23T05:28:38.606Z,7.36
2023-02-23T05:31:07.478Z,7.36
2023-02-23T05:33:35.490Z,7.38
2023-02-23T05:36:05.470Z,7.36
2023-02-23T05:38:46.306Z,7.35
2023-02-23T05:41:16.876Z,7.35
2023-02-23T05:43:52.387Z,7.36
2023-02-23T05:46:22.726Z,7.36
2023-02-23T05:49:01.345Z,7.37
2023-02-23T05:51:33.943Z,7.37
2023-02-23T05:54:01.238Z,7.36
2023-02-23T05:56:43.068Z,7.35
2023-02-23T05:59:14.211Z,7.36
2023-02-23T06:01:40.985Z,7.36
2023-02-23T06:04:23.376Z,7.35
2023-02-23T06:06:50.093Z,7.35
2023-02-23T06:09:18.554Z,7.34
2023-02-23T06:11:47.051Z,7.34
2023-02-23T06:14:13.729Z,7.35
2023-02-23T06:16:45.369Z,7.35
2023-02-23T06:19:11.984Z,7.36
2023-02-23T06:21:41.107Z,7.36
2023-02-23T06:24:07.595Z,7.36
2023-02-23T06:26:35.242Z,7.34
2023-02-23T06:29:02.700Z,7.31
2023-02-23T06:31:29.282Z,7.29
2023-02-23T06:33:57.824Z,7.27
2023-02-23T06:36:25.239Z,7.25
2023-02-23T06:38:57.048Z,7.23
2023-02-23T06:41:27.783Z,7.23
2023-02-23T06:43:55.624Z,7.20
2023-02-23T06:46:23.016Z,7.20
2023-02-23T06:48:49.449Z,7.21
2023-02-23T06:51:18.246Z,7.22
2023-02-23T06:53:44.792Z,7.23
2023-02-23T06:56:13.948Z,7.22
2023-02-23T06:58:43.045Z,7.22
2023-02-23T07:01:13.960Z,7.25
2023-02-23T07:03:40.394Z,7.26
2023-02-23T07:06:07.285Z,7.23
2023-02-23T07:08:40.002Z,7.23
2023-02-23T07:11:15.815Z,7.23
2023-02-23T07:13:42.684Z,7.25
2023-02-23T07:16:09.294Z,7.27
2023-02-23T07:18:36.906Z,7.28
2023-02-23T07:21:03.423Z,7.31
2023-02-23T07:23:31.460Z,7.31
2023-02-23T07:26:01.032Z,7.31
2023-02-23T07:28:28.773Z,7.28
2023-02-23T07:30:58.307Z,7.29
2023-02-23T07:33:25.243Z,7.31
2023-02-23T07:35:53.748Z,7.33
2023-02-23T07:38:20.160Z,7.35
2023-02-23T07:40:46.553Z,7.36
2023-02-23T07:43:14.004Z,7.38
2023-02-23T07:45:47.570Z,7.39
2023-02-23T07:48:14.474Z,7.41
2023-02-23T07:50:42.953Z,7.42
2023-02-23T07:53:09.764Z,7.42
2023-02-23T07:55:56.167Z,7.44
2023-02-23T07:58:22.602Z,7.45
2023-02-23T08:00:50.096Z,7.47
2023-02-23T08:03:16.468Z,7.47
2023-02-23T08:05:44.853Z,7.50
2023-02-23T08:08:12.021Z,7.50
2023-02-23T08:10:39.231Z,7.52
2023-02-23T08:13:06.051Z,7.52
2023-02-23T08:15:32.672Z,7.55
2023-02-23T08:17:59.073Z,7.59
2023-02-23T08:20:25.541Z,7.60
2023-02-23T08:22:55.767Z,7.62
2023-02-23T08:25:22.542Z,7.63
2023-02-23T08:27:52.054Z,7.66
2023-02-23T08:30:19.889Z,7.71
2023-02-23T08:32:46.415Z,7.73
2023-02-23T08:35:13.044Z,7.77
2023-02-23T08:37:39.670Z,7.81
2023-02-23T08:40:06.504Z,7.82
2023-02-23T08:42:32.897Z,7.85
2023-02-23T08:45:01.363Z,7.86
2023-02-23T08:47:28.045Z,7.87
2023-02-23T08:49:54.409Z,7.90
2023-02-23T08:52:21.512Z,7.90
2023-02-23T08:54:48.047Z,7.90
2023-02-23T08:57:14.572Z,7.90
2023-02-23T08:59:41.612Z,7.90
2023-02-23T09:02:12.596Z,7.90
2023-02-23T09:04:41.841Z,7.90
2023-02-23T09:07:13.069Z,7.90
2023-02-23T09:09:39.690Z,7.91
2023-02-23T09:12:06.256Z,7.95
2023-02-23T09:14:32.672Z,7.96
2023-02-23T09:16:59.175Z,7.97
2023-02-23T09:19:27.550Z,8.00
2023-02-23T09:21:54.286Z,8.01
2023-02-23T09:24:22.120Z,8.00
2023-02-23T09:26:49.200Z,8.00
2023-02-23T09:29:15.825Z,8.00
2023-02-23T09:31:43.678Z,8.03
2023-02-23T09:34:12.627Z,8.02
2023-02-23T09:36:39.129Z,8.02
2023-02-23T09:39:05.660Z,8.02
2023-02-23T09:41:56.014Z,8.02
2023-02-23T09:44:22.315Z,8.02
2023-02-23T09:47:21.278Z,8.04
2023-02-23T09:49:50.947Z,8.03
2023-02-23T09:52:22.328Z,8.05
2023-02-23T09:54:48.897Z,8.05
2023-02-23T09:57:19.987Z,8.04
2023-02-23T09:59:46.585Z,8.06
2023-02-23T10:02:19.377Z,8.09
2023-02-23T10:04:48.860Z,8.11
2023-02-23T10:07:30.053Z,8.14
2023-02-23T10:10:21.970Z,8.16
2023-02-23T10:13:04.250Z,8.19
2023-02-23T10:15:56.105Z,8.18
2023-02-23T10:18:46.788Z,8.17
2023-02-23T10:21:19.312Z,8.18
2023-02-23T10:23:56.539Z,8.19
2023-02-23T10:26:26.585Z,8.20
2023-02-23T10:28:56.008Z,8.20
2023-02-23T10:31:43.008Z,8.19
2023-02-23T10:34:18.142Z,8.19
2023-02-23T10:36:52.589Z,8.19
2023-02-23T10:39:19.287Z,8.21
2023-02-23T10:41:46.597Z,8.21
2023-02-23T10:44:21.269Z,8.22
2023-02-23T10:46:55.688Z,8.23
2023-02-23T10:49:30.373Z,8.23
2023-02-23T10:52:02.998Z,8.25
2023-02-23T10:54:45.657Z,8.23
2023-02-23T10:57:27.882Z,8.26
2023-02-23T11:00:15.937Z,8.25
2023-02-23T11:02:51.823Z,8.26
2023-02-23T11:05:50.491Z,8.25
2023-02-23T11:08:22.533Z,8.28
2023-02-23T11:11:09.395Z,8.28
2023-02-23T11:13:44.550Z,8.29
2023-02-23T11:16:30.437Z,8.33
2023-02-23T11:18:58.707Z,8.34
2023-02-23T11:21:39.011Z,8.34
2023-02-23T11:24:19.309Z,8.37
2023-02-23T11:26:48.762Z,8.41
2023-02-23T11:29:25.910Z,8.42
2023-02-23T11:31:58.796Z,8.39
2023-02-23T11:34:32.249Z,8.35
2023-02-23T11:37:08.299Z,8.36
2023-02-23T11:39:35.145Z,8.35
2023-02-23T11:42:20.887Z,8.34
2023-02-23T11:45:06.090Z,8.33
2023-02-23T11:47:38.689Z,8.28
2023-02-23T11:50:07.112Z,8.26
2023-02-23T11:52:36.446Z,8.21
2023-02-23T11:55:07.072Z,8.21
2023-02-23T11:57:35.694Z,8.18
2023-02-23T12:00:10.896Z,8.17
2023-02-23T12:03:07.952Z,8.16
2023-02-23T12:05:34.534Z,8.16
2023-02-23T12:08:15.972Z,8.16
2023-02-23T12:10:47.600Z,8.15
2023-02-23T12:13:27.891Z,8.14
2023-02-23T12:16:07.189Z,8.12
2023-02-23T12:18:40.256Z,8.13
2023-02-23T12:21:23.959Z,8.14
2023-02-23T12:23:54.953Z,8.14
2023-02-23T12:26:23.426Z,8.15
2023-02-23T12:28:58.662Z,8.17
2023-02-23T12:31:34.998Z,8.19
2023-02-23T12:34:18.293Z,8.20
2023-02-23T12:36:55.989Z,8.23
2023-02-23T12:39:35.026Z,8.30
2023-02-23T12:42:11.729Z,8.31
2023-02-23T12:44:47.000Z,8.34
2023-02-23T12:47:24.845Z,8.38
2023-02-23T12:50:07.533Z,8.41
2023-02-23T12:52:37.283Z,8.44
2023-02-23T12:55:09.444Z,8.44
2023-02-23T12:58:04.224Z,8.41
2023-02-23T13:00:58.335Z,8.44
2023-02-23T13:03:52.712Z,8.47
2023-02-23T13:06:36.928Z,8.48
2023-02-23T13:09:22.110Z,8.49
2023-02-23T13:11:56.756Z,8.49
2023-02-23T13:14:39.923Z,8.50
2023-02-23T13:17:25.751Z,8.48
2023-02-23T13:19:58.891Z,8.44
2023-02-23T13:22:46.373Z,8.44
2023-02-23T13:25:33.944Z,8.45
2023-02-23T13:28:01.992Z,8.47
2023-02-23T13:30:37.062Z,8.55
2023-02-23T13:33:14.575Z,8.58
2023-02-23T13:35:42.319Z,8.60
2023-02-23T13:38:25.799Z,8.65
2023-02-23T13:41:30.133Z,8.69
2023-02-23T13:44:07.924Z,8.72
2023-02-23T13:46:42.621Z,8.72
2023-02-23T13:49:51.141Z,8.72
2023-02-23T13:52:31.434Z,8.72
2023-02-23T13:55:03.774Z,8.69
2023-02-23T13:57:37.197Z,8.66
2023-02-23T14:00:04.482Z,8.65
2023-02-23T14:02:37.643Z,8.65
2023-02-23T14:05:30.817Z,8.66
2023-02-23T14:08:02.406Z,8.65
2023-02-23T14:10:37.945Z,8.64
2023-02-23T14:13:13.486Z,8.64
2023-02-23T14:15:44.347Z,8.61
2023-02-23T14:18:25.186Z,8.56
2023-02-23T14:21:18.568Z,8.57
2023-02-23T14:24:02.229Z,8.58
2023-02-23T14:26:28.567Z,8.60
2023-02-23T14:29:17.075Z,8.60
2023-02-23T14:32:03.609Z,8.60
2023-02-23T14:34:47.593Z,8.61
2023-02-23T14:37:27.940Z,8.60
2023-02-23T14:39:57.324Z,8.58
2023-02-23T14:42:27.034Z,8.52
2023-02-23T14:44:55.210Z,8.50
2023-02-23T14:47:27.329Z,8.49
2023-02-23T14:50:01.437Z,8.50
2023-02-23T14:52:41.436Z,8.50
2023-02-23T14:55:10.841Z,8.52
2023-02-23T14:57:39.349Z,8.53
2023-02-23T15:00:15.130Z,8.52
2023-02-23T15:02:55.488Z,8.53
2023-02-23T15:05:25.482Z,8.52
2023-02-23T15:07:54.019Z,8.51
2023-02-23T15:10:28.281Z,8.47
2023-02-23T15:12:55.841Z,8.48
2023-02-23T15:15:27.201Z,8.44
2023-02-23T15:17:58.078Z,8.44
2023-02-23T15:20:32.716Z,8.42
2023-02-23T15:23:02.795Z,8.33
2023-02-23T15:25:40.248Z,8.25
2023-02-23T15:28:29.524Z,8.20
2023-02-23T15:31:00.983Z,8.14
2023-02-23T15:33:30.984Z,8.10
2023-02-23T15:36:03.656Z,8.08
2023-02-23T15:38:43.594Z,8.06
2023-02-23T15:41:23.237Z,8.04
2023-02-23T15:43:49.742Z,8.02
2023-02-23T15:46:24.541Z,7.98
2023-02-23T15:48:53.751Z,7.98
2023-02-23T15:51:32.694Z,7.95
2023-02-23T15:54:01.524Z,7.94
2023-02-23T15:56:30.472Z,7.92
2023-02-23T15:59:02.658Z,7.90
2023-02-23T16:01:31.580Z,7.85
2023-02-23T16:04:13.039Z,7.79
2023-02-23T16:06:52.806Z,7.73
2023-02-23T16:09:24.039Z,7.71
2023-02-23T16:11:54.604Z,7.66
2023-02-23T16:14:22.652Z,7.63
2023-02-23T16:17:08.510Z,7.60
2023-02-23T16:19:40.717Z,7.55
2023-02-23T16:22:21.571Z,7.51
2023-02-23T16:24:58.046Z,7.49
2023-02-23T16:27:26.612Z,7.44
2023-02-23T16:30:06.659Z,7.43
2023-02-23T16:32:45.351Z,7.40
2023-02-23T16:35:19.519Z,7.41
2023-02-23T16:37:58.192Z,7.37
2023-02-23T16:40:25.305Z,7.36
2023-02-23T16:42:53.354Z,7.34
2023-02-23T16:45:21.258Z,7.34
2023-02-23T16:47:48.373Z,7.33
2023-02-23T16:50:23.048Z,7.33
2023-02-23T16:52:54.419Z,7.31
2023-02-23T16:55:26.394Z,7.30
2023-02-23T16:58:02.377Z,7.31
2023-02-23T17:00:31.620Z,7.30
2023-02-23T17:03:00.663Z,7.29
2023-02-23T17:05:29.161Z,7.28
2023-02-23T17:07:58.095Z,7.29
2023-02-23T17:10:30.547Z,7.29
2023-02-23T17:12:58.535Z,7.28
2023-02-23T17:15:29.098Z,7.25
2023-02-23T17:17:56.376Z,7.23
2023-02-23T17:20:25.840Z,7.20
2023-02-23T17:22:55.222Z,7.16
2023-02-23T17:25:24.342Z,7.16
2023-02-23T17:27:51.133Z,7.13
2023-02-23T17:30:17.798Z,7.08
2023-02-23T17:32:44.480Z,7.08
2023-02-23T17:35:11.394Z,7.07
2023-02-23T17:37:38.036Z,7.07
2023-02-23T17:40:09.778Z,7.03
2023-02-23T17:42:36.259Z,7.01
2023-02-23T17:45:06.313Z,6.96
2023-02-23T17:47:34.355Z,6.94
2023-02-23T17:50:01.699Z,6.93
2023-02-23T17:52:28.798Z,6.91
2023-02-23T17:54:55.633Z,6.89
2023-02-23T17:57:23.209Z,6.88
2023-02-23T17:59:49.843Z,6.85
2023-02-23T18:02:20.519Z,6.78
2023-02-23T18:04:48.374Z,6.75
2023-02-23T18:07:15.512Z,6.74
2023-02-23T18:09:42.048Z,6.73
2023-02-23T18:12:08.845Z,6.70
2023-02-23T18:14:35.639Z,6.67
2023-02-23T18:17:01.992Z,6.66
2023-02-23T18:19:28.453Z,6.64
2023-02-23T18:21:56.030Z,6.63
2023-02-23T18:24:27.429Z,6.63
2023-02-23T18:27:00.529Z,6.62
2023-02-23T18:29:32.018Z,6.63
2023-02-23T18:31:59.973Z,6.62
2023-02-23T18:34:28.705Z,6.60
2023-02-23T18:37:02.167Z,6.53
2023-02-23T18:39:31.041Z,6.52
2023-02-23T18:41:57.929Z,6.52
2023-02-23T18:44:24.382Z,6.50
2023-02-23T18:46:50.827Z,6.52
2023-02-23T18:49:20.721Z,6.50
2023-02-23T18:51:47.886Z,6.49
2023-02-23T18:54:16.896Z,6.46
2023-02-23T18:56:45.145Z,6.44
2023-02-23T18:59:12.257Z,6.43
2023-02-23T19:01:39.090Z,6.43
2023-02-23T19:04:08.038Z,6.42
2023-02-23T19:06:35.185Z,6.38
2023-02-23T19:09:04.157Z,6.35
2023-02-23T19:11:33.656Z,6.32
2023-02-23T19:14:06.260Z,6.33
2023-02-23T19:16:34.878Z,6.29
2023-02-23T19:19:03.560Z,6.27
2023-02-23T19:21:36.295Z,6.20
2023-02-23T19:24:05.418Z,6.11
2023-02-23T19:26:33.596Z,6.05
2023-02-23T19:29:00.652Z,6.00
2023-02-23T19:31:28.852Z,5.93
2023-02-23T19:33:57.482Z,5.83
2023-02-23T19:36:29.655Z,5.75
2023-02-23T19:39:06.133Z,5.71
2023-02-23T19:41:33.998Z,5.62
2023-02-23T19:44:00.555Z,5.54
2023-02-23T19:46:27.678Z,5.48
2023-02-23T19:48:54.583Z,5.40
2023-02-23T19:51:21.668Z,5.31
2023-02-23T19:53:48.498Z,5.28
2023-02-23T19:56:16.605Z,5.18
2023-02-23T19:58:46.478Z,5.15
2023-02-23T20:01:16.956Z,5.10
2023-02-23T20:03:45.338Z,5.06
2023-02-23T20:06:13.526Z,5.01
2023-02-23T20:08:41.518Z,4.97
2023-02-23T20:11:08.394Z,4.95
2023-02-23T20:13:35.628Z,4.88
2023-02-23T20:16:04.037Z,4.84
2023-02-23T20:18:30.534Z,4.82
2023-02-23T20:20:56.879Z,4.78
2023-02-23T20:23:23.286Z,4.70
2023-02-23T20:25:49.695Z,4.67
2023-02-23T20:28:16.133Z,4.68
2023-02-23T20:30:48.825Z,4.63
2023-02-23T20:33:15.486Z,4.63
2023-02-23T20:35:42.369Z,4.54
2023-02-23T20:38:08.886Z,4.55
2023-02-23T20:40:35.492Z,4.53
2023-02-23T20:43:01.858Z,4.52
2023-02-23T20:45:28.418Z,4.50
2023-02-23T20:47:55.613Z,4.47
2023-02-23T20:50:25.553Z,4.42
2023-02-23T20:52:52.004Z,4.36
2023-02-23T20:55:18.908Z,4.35
2023-02-23T20:57:47.344Z,4.32
2023-02-23T21:00:22.118Z,4.31
2023-02-23T21:02:55.263Z,4.29
2023-02-23T21:05:31.608Z,4.26
2023-02-23T21:08:04.050Z,4.21
2023-02-23T21:10:36.373Z,4.19
2023-02-23T21:13:12.001Z,4.16
2023-02-23T21:15:40.710Z,4.13
2023-02-23T21:18:10.136Z,4.11
2023-02-23T21:20:40.377Z,4.07
2023-02-23T21:23:07.888Z,3.96
2023-02-23T21:25:35.343Z,3.96
2023-02-23T21:28:05.814Z,3.93
2023-02-23T21:30:32.213Z,3.92
2023-02-23T21:33:00.142Z,3.91
2023-02-23T21:35:26.866Z,3.90
2023-02-23T21:37:53.364Z,3.84
2023-02-23T21:40:22.094Z,3.82
2023-02-23T21:42:49.632Z,3.82
2023-02-23T21:45:17.494Z,3.80
2023-02-23T21:47:45.970Z,3.79
2023-02-23T21:50:16.633Z,3.77
2023-02-23T21:52:45.408Z,3.75
2023-02-23T21:55:21.315Z,3.75
2023-02-23T21:57:48.125Z,3.73
2023-02-23T22:00:16.318Z,3.70
2023-02-23T22:02:46.245Z,3.66
2023-02-23T22:05:14.466Z,3.66
2023-02-23T22:07:41.431Z,3.64
2023-02-23T22:10:11.110Z,3.63
2023-02-23T22:12:37.514Z,3.60
2023-02-23T22:15:09.249Z,3.58
2023-02-23T22:17:38.544Z,3.54
2023-02-23T22:20:07.261Z,3.50
2023-02-23T22:22:36.183Z,3.48
2023-02-23T22:25:07.489Z,3.46
2023-02-23T22:27:33.870Z,3.41
2023-02-23T22:30:01.833Z,3.40
2023-02-23T22:32:32.691Z,3.40
2023-02-23T22:35:00.298Z,3.38
2023-02-23T22:37:31.533Z,3.37
2023-02-23T22:40:16.708Z,3.36
2023-02-23T22:42:49.762Z,3.31
2023-02-23T22:45:18.872Z,3.29
2023-02-23T22:47:45.403Z,3.27
2023-02-23T22:50:14.004Z,3.24
2023-02-23T22:52:40.773Z,3.21
2023-02-23T22:55:07.981Z,3.18
2023-02-23T22:57:34.355Z,3.15
2023-02-23T23:00:04.905Z,3.12
2023-02-23T23:02:36.089Z,3.10
2023-02-23T23:05:08.863Z,3.06
2023-02-23T23:07:35.426Z,3.04
2023-02-23T23:10:09.198Z,3.01
2023-02-23T23:12:38.104Z,3.01
2023-02-23T23:15:05.342Z,2.97
2023-02-23T23:17:35.856Z,2.97
2023-02-23T23:20:11.798Z,2.92
2023-02-23T23:22:45.534Z,2.89
2023-02-23T23:25:15.699Z,2.87
2023-02-23T23:27:44.828Z,2.85
2023-02-23T23:30:12.839Z,2.82
2023-02-23T23:32:40.687Z,2.79
2023-02-23T23:35:10.961Z,2.76
2023-02-23T23:37:39.798Z,2.74
2023-02-23T23:40:14.172Z,2.71
2023-02-23T23:42:45.829Z,2.69
2023-02-23T23:45:19.072Z,2.68
2023-02-23T23:47:46.645Z,2.67
2023-02-23T23:50:15.604Z,2.69
2023-02-23T23:52:45.946Z,2.72
2023-02-23T23:55:15.131Z,2.75
2023-02-23T23:57:42.183Z,2.74
